Time;durP1;ratioP1;P1;durP2;ratioP2;P2;SDS_P1;SDS_P2;PMS_P1;PMS_P2;Temp;Humidity;BMP_temperature;BMP_pressure;BME280_temperature;BME280_humidity;BME280_pressure;Samples;Min_cycle;Max_cycle;Signal;HPM_P1;HPM_P2
2021/12/30 00:00:45;;;;;;;3.43;1.67;;;13.50;99.90;;;;;;4974325;28;20462;-59
2021/12/30 00:03:11;;;;;;;2.33;1.87;;;13.40;99.90;;;;;;4976444;28;20547;-59
2021/12/30 00:05:38;;;;;;;1.70;1.43;;;13.40;99.90;;;;;;4974847;28;20464;-59
2021/12/30 00:08:05;;;;;;;2.07;1.70;;;13.40;99.90;;;;;;4977452;28;20437;-59
2021/12/30 00:10:31;;;;;;;2.73;1.80;;;13.40;99.90;;;;;;4957841;28;21590;-59
2021/12/30 00:12:57;;;;;;;1.90;1.70;;;13.40;99.90;;;;;;4978954;28;20440;-59
2021/12/30 00:15:23;;;;;;;2.70;1.67;;;13.50;99.90;;;;;;4973058;28;20527;-59
2021/12/30 00:17:49;;;;;;;2.30;1.57;;;13.50;99.90;;;;;;4976842;28;20476;-58
2021/12/30 00:20:15;;;;;;;2.70;1.90;;;13.50;99.90;;;;;;4976527;28;20444;-59
2021/12/30 00:22:42;;;;;;;3.53;1.60;;;13.50;99.90;;;;;;4957813;28;20724;-59
2021/12/30 00:25:12;;;;;;;3.17;2.00;;;13.50;99.90;;;;;;4977336;28;20280;-59
2021/12/30 00:27:38;;;;;;;2.87;2.07;;;13.50;99.90;;;;;;4972520;28;20442;-58
2021/12/30 00:30:06;;;;;;;2.97;1.63;;;13.60;99.90;;;;;;4977253;28;20432;-59
2021/12/30 00:32:32;;;;;;;3.00;1.93;;;13.60;99.90;;;;;;4975733;28;20178;-59
2021/12/30 00:34:58;;;;;;;2.13;1.73;;;13.60;99.90;;;;;;4973900;28;20511;-59
2021/12/30 00:37:23;;;;;;;2.70;2.00;;;13.60;99.90;;;;;;4958650;28;20218;-59
2021/12/30 00:39:49;;;;;;;2.00;1.70;;;13.60;99.90;;;;;;4977611;28;20190;-59
2021/12/30 00:42:15;;;;;;;4.13;1.60;;;13.60;99.90;;;;;;4974875;28;20189;-58
2021/12/30 00:44:40;;;;;;;2.27;1.70;;;13.70;99.90;;;;;;4975005;28;20235;-59
2021/12/30 00:47:06;;;;;;;3.10;1.60;;;13.70;99.90;;;;;;4976079;28;20227;-59
2021/12/30 00:49:32;;;;;;;2.03;1.40;;;13.70;99.90;;;;;;4976467;28;20648;-59
2021/12/30 00:51:57;;;;;;;2.43;1.50;;;13.70;99.90;;;;;;4976127;28;20193;-59
2021/12/30 00:54:23;;;;;;;2.27;1.37;;;13.70;99.90;;;;;;4976775;28;20270;-59
2021/12/30 00:56:50;;;;;;;5.53;1.63;;;13.70;99.90;;;;;;4974576;28;20225;-59
2021/12/30 00:59:16;;;;;;;1.80;1.53;;;13.70;99.90;;;;;;4978604;28;20185;-59
2021/12/30 01:01:42;;;;;;;2.00;1.80;;;13.60;99.90;;;;;;4978086;28;20444;-59
2021/12/30 01:04:08;;;;;;;1.87;1.67;;;13.60;99.90;;;;;;4979644;28;20439;-60
2021/12/30 01:06:34;;;;;;;1.47;1.37;;;13.60;99.90;;;;;;4979977;28;20990;-58
2021/12/30 01:09:00;;;;;;;1.50;1.40;;;13.60;99.90;;;;;;4978806;28;20182;-59
2021/12/30 01:11:26;;;;;;;1.43;1.30;;;13.60;99.90;;;;;;4978927;28;20814;-59
2021/12/30 01:14:15;;;;;;;2.00;1.63;;;13.50;99.90;;;;;;4979406;28;20213;-59
2021/12/30 01:16:43;;;;;;;4.83;1.93;;;13.50;99.90;;;;;;4983668;28;20473;-59
2021/12/30 01:19:42;;;;;;;1.70;1.60;;;13.50;99.90;;;;;;4980789;28;20803;-59
2021/12/30 01:22:08;;;;;;;2.00;1.80;;;13.50;99.90;;;;;;4978355;28;20425;-59
2021/12/30 01:24:34;;;;;;;1.53;1.43;;;13.50;99.90;;;;;;4980588;28;20480;-59
2021/12/30 01:27:00;;;;;;;2.47;1.60;;;13.50;99.90;;;;;;4962652;28;20440;-59
2021/12/30 01:29:29;;;;;;;2.40;1.40;;;13.60;99.90;;;;;;4979370;28;20188;-59
2021/12/30 01:31:55;;;;;;;2.30;1.50;;;13.60;99.90;;;;;;4984327;28;20656;-59
2021/12/30 01:34:21;;;;;;;4.00;1.57;;;13.60;99.90;;;;;;4978620;28;20554;-59
2021/12/30 01:36:47;;;;;;;1.50;1.27;;;13.60;99.90;;;;;;4982339;28;20475;-58
2021/12/30 01:39:13;;;;;;;2.43;1.40;;;13.60;99.90;;;;;;4982417;28;20456;-58
2021/12/30 01:41:40;;;;;;;1.40;1.30;;;13.70;99.90;;;;;;4984233;28;20178;-59
2021/12/30 01:44:06;;;;;;;1.93;1.73;;;13.80;99.90;;;;;;4983946;28;20441;-59
2021/12/30 01:46:40;;;;;;;1.50;1.30;;;13.80;99.90;;;;;;4983942;28;21010;-58
2021/12/30 01:49:06;;;;;;;1.77;1.67;;;13.80;99.90;;;;;;4984957;28;20193;-58
2021/12/30 01:51:32;;;;;;;2.67;2.40;;;13.90;99.90;;;;;;4985651;28;20433;-59
2021/12/30 01:53:58;;;;;;;1.80;1.37;;;13.90;99.90;;;;;;4982461;28;20742;-58
2021/12/30 01:56:24;;;;;;;1.77;1.40;;;14.00;99.90;;;;;;4981532;28;20453;-58
2021/12/30 01:58:50;;;;;;;1.60;1.20;;;14.00;99.90;;;;;;4979592;28;20561;-58
2021/12/30 02:01:16;;;;;;;2.10;1.53;;;14.00;99.90;;;;;;4981731;28;20181;-59
2021/12/30 02:03:41;;;;;;;2.00;1.40;;;14.00;99.90;;;;;;4981663;28;20623;-59
2021/12/30 02:06:07;;;;;;;4.43;1.50;;;14.00;99.90;;;;;;4981229;28;20377;-59
2021/12/30 02:08:33;;;;;;;1.73;1.47;;;14.00;99.90;;;;;;4983114;28;20186;-58
2021/12/30 02:10:58;;;;;;;3.53;1.87;;;14.00;99.90;;;;;;4979865;28;20787;-59
2021/12/30 02:13:24;;;;;;;1.57;1.30;;;14.00;99.90;;;;;;4981862;28;20193;-58
2021/12/30 02:15:50;;;;;;;2.17;1.40;;;14.00;99.90;;;;;;4978690;28;20555;-59
2021/12/30 02:18:16;;;;;;;1.90;1.80;;;14.00;99.90;;;;;;4986847;28;20554;-58
2021/12/30 02:20:47;;;;;;;1.80;1.30;;;14.00;99.90;;;;;;4977508;28;20194;-58
2021/12/30 02:23:22;;;;;;;2.07;1.50;;;14.00;99.90;;;;;;4982350;28;20426;-58
2021/12/30 02:25:50;;;;;;;4.10;1.40;;;14.00;99.90;;;;;;4981826;28;20471;-59
2021/12/30 02:28:17;;;;;;;3.00;1.77;;;14.00;99.90;;;;;;4981203;28;20456;-59
2021/12/30 02:30:44;;;;;;;1.50;1.40;;;14.10;99.90;;;;;;4982351;28;20448;-59
2021/12/30 02:33:11;;;;;;;1.37;1.27;;;14.00;99.90;;;;;;4980145;28;20441;-59
2021/12/30 02:35:37;;;;;;;1.83;1.40;;;14.00;99.90;;;;;;4979800;28;20453;-59
2021/12/30 02:38:04;;;;;;;4.70;1.67;;;14.00;99.90;;;;;;4980353;28;20476;-59
2021/12/30 02:40:36;;;;;;;1.67;1.47;;;14.00;99.90;;;;;;4981635;28;20520;-59
2021/12/30 02:43:05;;;;;;;3.20;1.50;;;14.10;99.90;;;;;;4980641;28;20429;-58
2021/12/30 02:45:31;;;;;;;1.60;1.47;;;14.00;99.90;;;;;;4980575;28;20453;-59
2021/12/30 02:47:56;;;;;;;4.93;1.80;;;14.00;99.90;;;;;;4982135;28;20433;-58
2021/12/30 02:50:22;;;;;;;1.60;1.37;;;14.00;99.90;;;;;;4978858;28;20189;-59
2021/12/30 02:52:47;;;;;;;1.90;1.70;;;14.00;99.90;;;;;;4980216;28;20276;-59
2021/12/30 02:55:13;;;;;;;1.97;1.47;;;14.00;99.90;;;;;;4981399;28;20210;-58
2021/12/30 02:57:39;;;;;;;2.27;1.60;;;14.00;99.90;;;;;;4980020;28;20305;-58
2021/12/30 03:00:07;;;;;;;3.40;1.60;;;14.00;99.90;;;;;;4980936;28;20524;-58
2021/12/30 03:02:36;;;;;;;1.57;1.40;;;14.00;99.90;;;;;;4978686;28;20192;-58
2021/12/30 03:05:04;;;;;;;1.90;1.70;;;14.00;99.90;;;;;;4981165;28;20517;-58
2021/12/30 03:07:29;;;;;;;3.20;2.03;;;13.90;99.90;;;;;;4979094;28;20441;-58
2021/12/30 03:09:55;;;;;;;1.90;1.47;;;13.90;99.90;;;;;;4982598;28;20495;-58
2021/12/30 03:12:21;;;;;;;2.40;1.63;;;13.90;99.90;;;;;;4979917;28;20224;-58
2021/12/30 03:14:46;;;;;;;3.27;1.80;;;13.90;99.90;;;;;;4981240;28;20213;-58
2021/12/30 03:17:12;;;;;;;1.53;1.43;;;13.90;99.90;;;;;;4981977;28;20220;-59
2021/12/30 03:19:38;;;;;;;2.60;1.70;;;13.90;99.90;;;;;;4981270;28;20712;-59
2021/12/30 03:22:04;;;;;;;2.23;1.50;;;14.00;99.90;;;;;;4979024;28;20194;-58
2021/12/30 03:24:29;;;;;;;11.30;1.90;;;13.90;99.90;;;;;;4978665;28;20683;-58
2021/12/30 03:26:55;;;;;;;2.60;1.50;;;13.90;99.90;;;;;;4983998;28;20725;-58
2021/12/30 03:29:21;;;;;;;1.80;1.50;;;13.90;99.90;;;;;;4978401;28;20742;-58
2021/12/30 03:31:47;;;;;;;1.67;1.50;;;13.90;99.90;;;;;;4980683;28;20198;-58
2021/12/30 03:34:13;;;;;;;1.97;1.43;;;13.90;99.90;;;;;;4981807;28;20599;-58
2021/12/30 03:36:39;;;;;;;1.33;1.23;;;13.90;99.90;;;;;;4978590;28;20441;-58
2021/12/30 03:39:05;;;;;;;1.83;1.57;;;13.90;99.90;;;;;;4977084;28;20252;-58
2021/12/30 03:41:31;;;;;;;3.07;1.50;;;13.90;99.90;;;;;;4980632;28;20272;-59
2021/12/30 03:44:00;;;;;;;5.13;1.60;;;13.80;99.90;;;;;;4977145;28;20536;-59
2021/12/30 03:46:27;;;;;;;3.10;1.80;;;13.80;99.90;;;;;;4979081;28;20493;-58
2021/12/30 03:48:53;;;;;;;2.53;1.77;;;13.80;99.90;;;;;;4980266;28;20442;-59
2021/12/30 03:51:22;;;;;;;3.77;1.60;;;13.80;99.90;;;;;;4980798;28;20433;-59
2021/12/30 03:53:49;;;;;;;1.70;1.57;;;13.80;99.90;;;;;;4980393;28;20193;-59
2021/12/30 03:56:22;;;;;;;2.00;1.70;;;13.80;99.90;;;;;;4979420;28;20918;-60
2021/12/30 03:58:48;;;;;;;3.43;1.37;;;13.80;99.90;;;;;;4963392;28;21259;-59
2021/12/30 04:01:19;;;;;;;2.20;1.53;;;13.80;99.90;;;;;;4978265;28;20453;-58
2021/12/30 04:03:46;;;;;;;1.80;1.57;;;13.80;99.90;;;;;;4982923;28;20536;-59
2021/12/30 04:06:12;;;;;;;2.47;1.77;;;13.70;99.90;;;;;;4978090;28;20448;-59
2021/12/30 04:08:38;;;;;;;2.37;1.33;;;13.70;99.90;;;;;;4977653;28;20457;-59
2021/12/30 04:11:04;;;;;;;1.33;1.20;;;13.70;99.90;;;;;;4979966;28;20196;-58
2021/12/30 04:13:30;;;;;;;2.77;1.63;;;13.60;99.90;;;;;;4979222;28;21058;-58
2021/12/30 04:15:56;;;;;;;2.23;1.63;;;13.70;99.90;;;;;;4982507;28;20259;-59
2021/12/30 04:18:21;;;;;;;2.93;1.70;;;13.70;99.90;;;;;;4976665;28;20978;-59
2021/12/30 04:20:48;;;;;;;2.73;1.43;;;13.70;99.90;;;;;;4980674;28;20437;-58
2021/12/30 04:23:15;;;;;;;1.60;1.33;;;13.70;99.90;;;;;;4981008;28;20178;-58
2021/12/30 04:25:41;;;;;;;2.57;1.60;;;13.70;99.90;;;;;;4979106;28;20523;-58
2021/12/30 04:28:06;;;;;;;2.03;1.50;;;13.70;99.90;;;;;;4978098;28;20462;-58
2021/12/30 04:30:32;;;;;;;3.20;1.20;;;13.70;99.90;;;;;;4981588;28;20193;-59
2021/12/30 04:32:58;;;;;;;2.00;1.40;;;13.70;99.90;;;;;;4979407;28;20193;-58
2021/12/30 04:35:24;;;;;;;1.60;1.40;;;13.60;99.90;;;;;;4983444;28;20468;-58
2021/12/30 04:37:50;;;;;;;1.40;1.20;;;13.70;99.90;;;;;;4987149;28;20220;-58
2021/12/30 04:40:16;;;;;;;5.63;1.50;;;13.70;99.90;;;;;;4985548;28;20212;-58
2021/12/30 04:42:42;;;;;;;1.97;1.60;;;13.70;99.90;;;;;;4985085;28;20267;-58
2021/12/30 04:45:10;;;;;;;2.33;1.37;;;13.70;99.90;;;;;;4982776;28;20271;-58
2021/12/30 04:47:38;;;;;;;1.40;1.10;;;13.70;99.90;;;;;;4987548;28;20425;-59
2021/12/30 04:50:10;;;;;;;1.77;1.13;;;13.70;99.90;;;;;;4983094;28;20791;-59
2021/12/30 04:52:36;;;;;;;1.67;1.40;;;13.70;99.90;;;;;;4986741;28;20433;-58
2021/12/30 04:55:01;;;;;;;1.50;1.30;;;13.70;99.90;;;;;;4984312;28;20453;-59
2021/12/30 04:57:27;;;;;;;2.27;1.23;;;13.70;99.90;;;;;;4985866;28;20221;-59
2021/12/30 04:59:52;;;;;;;2.73;1.20;;;13.70;99.90;;;;;;4986395;28;20701;-59
2021/12/30 05:02:18;;;;;;;2.13;1.10;;;13.70;99.90;;;;;;4983896;28;20670;-58
2021/12/30 05:04:44;;;;;;;2.00;1.40;;;13.80;99.90;;;;;;4985055;28;20202;-59
2021/12/30 05:07:09;;;;;;;1.67;1.20;;;13.80;99.90;;;;;;4987523;28;20545;-59
2021/12/30 05:09:35;;;;;;;2.17;1.40;;;13.90;99.90;;;;;;4985516;28;20193;-58
2021/12/30 05:12:01;;;;;;;3.90;1.40;;;13.90;99.90;;;;;;4987340;28;20181;-59
2021/12/30 05:14:26;;;;;;;1.50;1.20;;;13.80;99.90;;;;;;4983682;28;20224;-58
2021/12/30 05:16:53;;;;;;;1.53;1.23;;;13.80;99.90;;;;;;4987680;28;20265;-58
2021/12/30 05:19:19;;;;;;;2.90;1.07;;;13.90;99.90;;;;;;4986923;28;20185;-58
2021/12/30 05:21:44;;;;;;;1.73;1.17;;;13.90;99.90;;;;;;4986133;28;20437;-58
2021/12/30 05:24:10;;;;;;;1.50;1.30;;;13.90;99.90;;;;;;4983543;28;20225;-58
2021/12/30 05:26:36;;;;;;;1.20;1.00;;;13.90;99.90;;;;;;4985874;28;20189;-58
2021/12/30 05:29:03;;;;;;;4.50;1.23;;;14.00;99.90;;;;;;4987584;28;20178;-58
2021/12/30 05:31:29;;;;;;;1.77;1.23;;;14.10;99.90;;;;;;4985909;28;20569;-59
2021/12/30 05:33:54;;;;;;;3.83;1.17;;;14.10;99.90;;;;;;4987342;28;20432;-58
2021/12/30 05:36:20;;;;;;;1.20;1.00;;;14.10;99.90;;;;;;4984910;28;20201;-59
2021/12/30 05:38:46;;;;;;;1.20;0.97;;;14.20;99.90;;;;;;4987165;28;20216;-59
2021/12/30 05:41:11;;;;;;;1.90;1.13;;;14.20;99.90;;;;;;4986632;28;20312;-59
2021/12/30 05:43:37;;;;;;;1.20;0.93;;;14.30;99.90;;;;;;4986730;28;20651;-59
2021/12/30 05:46:03;;;;;;;3.07;1.20;;;14.40;99.90;;;;;;4984276;28;20685;-59
2021/12/30 05:48:29;;;;;;;1.30;0.90;;;14.40;99.90;;;;;;4966111;28;20194;-59
2021/12/30 05:50:59;;;;;;;1.43;1.03;;;14.40;99.90;;;;;;4982716;28;20702;-59
2021/12/30 05:53:25;;;;;;;1.40;0.97;;;14.40;99.90;;;;;;4983909;28;20193;-59
2021/12/30 05:55:51;;;;;;;1.97;1.10;;;14.50;99.90;;;;;;4982634;28;20468;-59
2021/12/30 05:58:16;;;;;;;1.30;0.87;;;14.40;99.90;;;;;;4985226;28;20789;-59
2021/12/30 06:00:44;;;;;;;1.40;0.90;;;14.40;99.90;;;;;;4983084;28;20192;-58
2021/12/30 06:03:09;;;;;;;2.47;1.10;;;14.40;99.90;;;;;;4985413;28;20170;-58
2021/12/30 06:05:35;;;;;;;1.90;1.00;;;14.50;99.90;;;;;;4984142;28;20987;-58
2021/12/30 06:08:01;;;;;;;1.43;1.00;;;14.40;99.90;;;;;;4983762;28;20568;-58
2021/12/30 06:10:26;;;;;;;1.20;1.00;;;14.40;99.90;;;;;;4982195;28;20191;-59
2021/12/30 06:12:52;;;;;;;1.43;1.00;;;14.50;99.90;;;;;;4984020;28;20189;-58
2021/12/30 06:15:18;;;;;;;1.50;1.00;;;14.50;99.90;;;;;;4982743;28;20845;-59
2021/12/30 06:17:44;;;;;;;1.53;1.10;;;14.50;99.90;;;;;;4983600;28;20589;-58
2021/12/30 06:20:13;;;;;;;1.30;0.90;;;14.50;99.90;;;;;;4981591;28;20213;-58
2021/12/30 06:22:39;;;;;;;1.30;0.90;;;14.50;99.90;;;;;;4980263;28;20261;-58
2021/12/30 06:25:06;;;;;;;1.20;1.00;;;14.50;99.90;;;;;;4982588;28;20996;-60
2021/12/30 06:27:31;;;;;;;2.23;1.23;;;14.50;99.90;;;;;;4983472;28;20567;-59
2021/12/30 06:29:57;;;;;;;4.90;1.10;;;14.50;99.90;;;;;;4983483;28;20540;-59
2021/12/30 06:32:23;;;;;;;1.53;1.20;;;14.50;99.90;;;;;;4985209;28;20174;-59
2021/12/30 06:34:48;;;;;;;1.87;1.10;;;14.50;99.90;;;;;;4981143;28;20233;-59
2021/12/30 06:37:14;;;;;;;1.57;1.00;;;14.50;99.90;;;;;;4967449;28;20206;-59
2021/12/30 06:39:39;;;;;;;2.63;1.37;;;14.50;99.90;;;;;;4983043;28;20589;-59
2021/12/30 06:42:05;;;;;;;1.27;0.90;;;14.50;99.90;;;;;;4984327;28;20265;-58
2021/12/30 06:44:31;;;;;;;1.20;0.90;;;14.50;99.90;;;;;;4980702;28;20680;-59
2021/12/30 06:46:59;;;;;;;1.63;1.03;;;14.50;99.90;;;;;;4981625;28;20403;-59
2021/12/30 06:49:25;;;;;;;1.30;1.00;;;14.60;99.90;;;;;;4984533;28;20556;-58
2021/12/30 06:51:51;;;;;;;1.67;1.10;;;14.50;99.90;;;;;;4963253;28;20433;-59
2021/12/30 06:54:17;;;;;;;1.87;0.90;;;14.60;99.90;;;;;;4982669;28;20499;-59
2021/12/30 06:56:43;;;;;;;1.37;1.00;;;14.60;99.90;;;;;;4982739;28;20842;-58
2021/12/30 06:59:15;;;;;;;1.83;1.23;;;14.60;99.90;;;;;;4981602;28;20720;-59
2021/12/30 07:01:44;;;;;;;1.20;1.00;;;14.60;99.90;;;;;;4984108;28;20836;-60
2021/12/30 07:04:10;;;;;;;2.03;1.20;;;14.50;99.90;;;;;;4981995;28;20425;-59
2021/12/30 07:06:35;;;;;;;1.97;1.33;;;14.50;99.90;;;;;;4981843;28;20437;-58
2021/12/30 07:09:01;;;;;;;1.40;1.10;;;14.50;99.90;;;;;;4982266;28;20194;-59
2021/12/30 07:11:27;;;;;;;1.97;1.20;;;14.50;99.90;;;;;;4981839;28;20244;-59
2021/12/30 07:13:52;;;;;;;1.13;0.90;;;14.50;99.90;;;;;;4983876;28;20269;-60
2021/12/30 07:16:18;;;;;;;3.00;1.10;;;14.50;99.90;;;;;;4980094;28;20213;-59
2021/12/30 07:18:43;;;;;;;1.50;1.20;;;14.50;99.90;;;;;;4985143;28;20213;-59
2021/12/30 07:21:09;;;;;;;1.30;0.87;;;14.50;99.90;;;;;;4980724;28;20241;-58
2021/12/30 07:23:34;;;;;;;1.40;1.20;;;14.50;99.90;;;;;;4982614;28;20656;-58
2021/12/30 07:26:00;;;;;;;1.10;0.90;;;14.60;99.90;;;;;;4981979;28;20245;-59
2021/12/30 07:28:25;;;;;;;1.20;0.90;;;14.60;99.90;;;;;;4977656;28;20550;-59
2021/12/30 07:30:51;;;;;;;1.87;1.10;;;14.60;99.90;;;;;;4981400;28;20189;-59
2021/12/30 07:33:17;;;;;;;1.63;1.03;;;14.60;99.90;;;;;;4982951;28;20189;-59
2021/12/30 07:35:43;;;;;;;1.20;0.90;;;14.60;99.90;;;;;;4981085;28;20754;-58
2021/12/30 07:38:08;;;;;;;1.20;0.93;;;14.70;99.90;;;;;;4982709;28;20257;-58
2021/12/30 07:40:34;;;;;;;1.10;0.80;;;14.70;99.90;;;;;;4981677;28;20442;-59
2021/12/30 07:43:00;;;;;;;1.53;0.90;;;14.70;99.90;;;;;;4982432;28;20264;-59
2021/12/30 07:45:26;;;;;;;1.60;1.00;;;14.70;99.90;;;;;;4979260;28;20252;-59
2021/12/30 07:47:53;;;;;;;1.83;1.00;;;14.70;99.90;;;;;;4979613;28;20190;-58
2021/12/30 07:50:19;;;;;;;1.47;1.03;;;14.80;99.90;;;;;;4981431;28;20181;-59
2021/12/30 07:52:45;;;;;;;1.17;0.90;;;14.80;99.90;;;;;;4980131;28;20433;-59
2021/12/30 07:55:13;;;;;;;1.30;1.10;;;14.80;99.90;;;;;;4982250;28;20443;-58
2021/12/30 07:57:40;;;;;;;2.40;1.30;;;14.70;99.90;;;;;;4981172;28;20229;-59
2021/12/30 08:00:10;;;;;;;1.50;0.93;;;14.70;99.90;;;;;;4981892;28;20438;-58
2021/12/30 08:02:36;;;;;;;1.40;1.00;;;14.70;99.90;;;;;;4961975;28;20441;-58
2021/12/30 08:05:02;;;;;;;1.30;1.07;;;14.70;99.90;;;;;;4981182;28;20465;-59
2021/12/30 08:07:28;;;;;;;1.10;1.00;;;14.70;99.90;;;;;;4982809;28;20212;-58
2021/12/30 08:09:54;;;;;;;2.60;1.00;;;14.60;99.90;;;;;;4981423;28;20826;-58
2021/12/30 08:12:20;;;;;;;1.40;1.00;;;14.60;99.90;;;;;;4980460;28;20185;-58
2021/12/30 08:14:46;;;;;;;3.10;1.10;;;14.50;99.90;;;;;;4981033;28;20467;-58
2021/12/30 08:17:12;;;;;;;1.83;1.10;;;14.40;99.90;;;;;;4981277;28;20468;-58
2021/12/30 08:19:37;;;;;;;1.30;1.00;;;14.40;99.90;;;;;;4983334;28;20236;-58
2021/12/30 08:22:03;;;;;;;1.87;1.00;;;14.40;99.90;;;;;;4979675;28;20640;-58
2021/12/30 08:24:29;;;;;;;1.30;1.20;;;14.30;99.90;;;;;;4981780;28;20229;-59
2021/12/30 08:26:55;;;;;;;1.20;1.03;;;14.30;99.90;;;;;;4978300;28;20936;-59
2021/12/30 08:29:21;;;;;;;1.20;1.10;;;14.30;99.90;;;;;;4982257;28;20722;-58
2021/12/30 08:31:47;;;;;;;1.20;1.00;;;14.30;99.90;;;;;;4978315;28;20480;-59
2021/12/30 08:34:14;;;;;;;1.30;0.90;;;14.20;99.90;;;;;;4979510;28;21050;-59
2021/12/30 08:36:39;;;;;;;1.23;1.00;;;14.20;99.90;;;;;;4961357;28;20449;-59
2021/12/30 08:39:05;;;;;;;1.40;1.17;;;14.20;99.90;;;;;;4979486;28;20581;-59
2021/12/30 08:41:32;;;;;;;1.17;0.87;;;14.20;99.90;;;;;;4980153;28;20260;-59
2021/12/30 08:43:57;;;;;;;2.17;1.00;;;14.30;99.90;;;;;;4979158;28;20243;-58
2021/12/30 08:46:23;;;;;;;2.23;0.90;;;14.30;99.90;;;;;;4980815;28;20488;-59
2021/12/30 08:48:48;;;;;;;1.40;1.10;;;14.30;99.90;;;;;;4980587;28;20313;-58
2021/12/30 08:51:14;;;;;;;1.20;1.00;;;14.30;99.90;;;;;;4983218;28;20574;-60
2021/12/30 08:53:41;;;;;;;2.33;1.00;;;14.40;99.90;;;;;;4982462;28;20635;-59
2021/12/30 08:56:08;;;;;;;1.40;1.10;;;14.40;99.90;;;;;;4979146;28;20206;-60
2021/12/30 08:58:34;;;;;;;1.27;0.97;;;14.50;99.90;;;;;;4981357;28;20476;-59
2021/12/30 09:01:00;;;;;;;1.60;1.07;;;14.50;99.90;;;;;;4981183;28;20430;-58
2021/12/30 09:03:25;;;;;;;1.63;1.20;;;14.50;99.90;;;;;;4980616;28;20441;-58
2021/12/30 09:05:51;;;;;;;1.50;1.00;;;14.50;99.90;;;;;;4984184;28;20216;-55
2021/12/30 09:08:17;;;;;;;1.47;1.10;;;14.60;99.90;;;;;;4969063;28;20217;-60
2021/12/30 09:10:45;;;;;;;1.20;1.10;;;14.70;99.90;;;;;;4970702;28;20812;-59
2021/12/30 09:13:14;;;;;;;2.47;1.20;;;14.80;99.90;;;;;;4978078;28;20201;-59
2021/12/30 09:15:39;;;;;;;1.60;1.17;;;14.80;99.90;;;;;;4980817;28;20808;-59
2021/12/30 09:18:06;;;;;;;1.17;0.97;;;14.80;99.90;;;;;;4981941;28;20468;-59
2021/12/30 09:20:32;;;;;;;1.23;1.07;;;14.80;99.90;;;;;;4980482;28;20775;-58
2021/12/30 09:22:58;;;;;;;1.20;1.10;;;14.80;99.90;;;;;;4984571;28;20804;-59
2021/12/30 09:25:24;;;;;;;1.20;1.00;;;14.90;99.90;;;;;;4981379;28;20453;-58
2021/12/30 09:27:52;;;;;;;1.40;1.20;;;14.90;99.90;;;;;;4983481;28;20272;-58
2021/12/30 09:30:18;;;;;;;1.53;1.00;;;15.00;99.90;;;;;;4984407;28;20871;-58
2021/12/30 09:32:45;;;;;;;2.73;1.20;;;15.10;99.90;;;;;;4986332;28;20441;-59
2021/12/30 09:35:12;;;;;;;1.63;1.23;;;15.10;99.90;;;;;;4981934;28;20532;-57
2021/12/30 09:37:39;;;;;;;1.30;1.00;;;15.10;99.90;;;;;;4984608;28;20468;-57
2021/12/30 09:40:08;;;;;;;1.50;1.10;;;15.20;99.90;;;;;;4982701;28;20835;-58
2021/12/30 09:42:36;;;;;;;1.50;1.10;;;15.20;99.90;;;;;;4984983;28;20448;-58
2021/12/30 09:45:02;;;;;;;1.30;1.10;;;15.20;99.90;;;;;;4982037;28;20460;-59
2021/12/30 09:47:28;;;;;;;1.20;0.90;;;15.30;99.90;;;;;;4986685;28;20958;-61
2021/12/30 09:49:54;;;;;;;1.40;1.00;;;15.30;99.90;;;;;;4986108;28;20491;-59
2021/12/30 09:52:20;;;;;;;1.90;1.10;;;15.30;99.90;;;;;;4979515;28;20746;-59
2021/12/30 09:54:46;;;;;;;1.43;1.10;;;15.40;99.90;;;;;;4978447;28;20229;-59
2021/12/30 09:57:11;;;;;;;3.00;1.23;;;15.40;99.90;;;;;;4972902;28;20480;-59
2021/12/30 09:59:37;;;;;;;1.70;1.10;;;15.40;99.90;;;;;;4964334;28;20534;-56
2021/12/30 10:02:03;;;;;;;1.40;1.20;;;15.50;99.90;;;;;;4978849;28;20656;-57
2021/12/30 10:04:32;;;;;;;1.40;1.10;;;15.50;99.90;;;;;;4979833;28;20665;-57
2021/12/30 10:06:58;;;;;;;1.20;1.00;;;15.50;99.90;;;;;;4976633;28;20455;-58
2021/12/30 10:09:50;;;;;;;1.20;1.10;;;15.60;99.90;;;;;;4979173;28;20429;-58
2021/12/30 10:12:36;;;;;;;1.30;1.20;;;15.50;99.90;;;;;;4980102;28;20437;-57
2021/12/30 10:15:03;;;;;;;1.50;1.10;;;15.50;99.90;;;;;;4978628;28;20456;-57
2021/12/30 10:17:29;;;;;;;1.37;1.27;;;15.50;99.90;;;;;;4968654;28;20475;-57
2021/12/30 10:20:25;;;;;;;1.30;1.00;;;15.60;99.90;;;;;;4982140;28;20437;-57
2021/12/30 10:22:52;;;;;;;1.40;1.20;;;15.60;99.90;;;;;;4963530;28;20579;-58
2021/12/30 10:25:45;;;;;;;1.70;1.00;;;15.60;99.90;;;;;;4980339;28;20882;-58
2021/12/30 10:28:17;;;;;;;1.30;1.20;;;15.60;99.90;;;;;;4973799;28;20802;-59
2021/12/30 10:30:43;;;;;;;1.20;1.00;;;15.60;99.90;;;;;;4981317;28;20444;-59
2021/12/30 10:33:10;;;;;;;1.43;1.13;;;15.60;99.90;;;;;;4979554;28;20440;-59
2021/12/30 10:35:36;;;;;;;2.67;1.40;;;15.60;99.90;;;;;;4982848;28;20480;-59
2021/12/30 10:38:08;;;;;;;1.97;1.07;;;15.60;99.90;;;;;;4974109;28;20989;-59
2021/12/30 10:40:35;;;;;;;1.40;1.20;;;15.50;99.90;;;;;;4981704;28;20428;-59
2021/12/30 10:43:33;;;;;;;1.67;1.10;;;15.50;99.90;;;;;;4976365;28;20438;-59
2021/12/30 10:46:05;;;;;;;1.80;1.20;;;15.60;99.90;;;;;;4968621;28;20469;-59
2021/12/30 10:48:32;;;;;;;1.97;1.30;;;15.50;99.90;;;;;;4978102;28;21152;-57
2021/12/30 10:51:20;;;;;;;1.27;1.10;;;15.50;99.90;;;;;;4981002;28;20432;-60
2021/12/30 10:53:47;;;;;;;1.77;1.27;;;15.50;99.90;;;;;;4974241;28;20459;-61
2021/12/30 10:56:19;;;;;;;1.70;1.20;;;15.60;99.90;;;;;;4961844;28;20516;-60
2021/12/30 10:58:45;;;;;;;1.40;1.10;;;15.60;99.90;;;;;;4963345;28;20476;-59
2021/12/30 11:01:20;;;;;;;1.40;1.17;;;15.60;99.90;;;;;;4983390;28;20441;-60
2021/12/30 11:03:55;;;;;;;3.17;1.60;;;15.60;99.90;;;;;;4979912;28;20662;-57
2021/12/30 11:06:21;;;;;;;1.40;1.20;;;15.70;99.90;;;;;;4983001;28;20448;-59
2021/12/30 11:08:49;;;;;;;1.40;1.20;;;15.70;99.90;;;;;;4983492;28;20938;-60
2021/12/30 11:11:28;;;;;;;1.20;1.10;;;15.70;99.90;;;;;;4977950;28;20185;-60
2021/12/30 11:14:12;;;;;;;1.30;1.00;;;15.70;99.90;;;;;;4981736;28;20869;-60
2021/12/30 11:17:23;;;;;;;1.70;1.20;;;15.70;99.90;;;;;;4983673;28;20471;-59
2021/12/30 11:19:54;;;;;;;1.63;1.30;;;15.80;99.90;;;;;;4968859;28;20448;-60
2021/12/30 11:22:23;;;;;;;1.20;1.00;;;15.80;99.90;;;;;;4970530;28;22146;-60
2021/12/30 11:24:50;;;;;;;1.40;1.13;;;15.80;99.90;;;;;;4980395;28;20464;-60
2021/12/30 11:27:18;;;;;;;2.10;1.30;;;15.80;99.90;;;;;;4984974;28;20448;-60
2021/12/30 11:29:45;;;;;;;1.77;1.17;;;15.80;99.90;;;;;;4982426;28;20441;-60
2021/12/30 11:32:18;;;;;;;2.13;1.20;;;15.80;99.90;;;;;;4983532;28;20439;-60
2021/12/30 11:34:45;;;;;;;1.30;1.10;;;15.80;99.90;;;;;;4984551;28;20449;-60
2021/12/30 11:37:12;;;;;;;1.50;1.17;;;15.80;99.90;;;;;;4978061;28;20838;-58
2021/12/30 11:39:45;;;;;;;1.77;1.10;;;15.80;99.90;;;;;;4984792;28;20930;-59
2021/12/30 11:42:19;;;;;;;2.03;1.40;;;15.80;99.90;;;;;;4962691;28;20872;-60
2021/12/30 11:44:53;;;;;;;1.50;1.20;;;15.80;99.90;;;;;;4974548;28;20457;-61
2021/12/30 11:47:34;;;;;;;1.43;1.20;;;15.80;99.90;;;;;;4979881;28;20640;-61
2021/12/30 11:50:04;;;;;;;1.50;1.20;;;15.70;99.90;;;;;;4980108;28;20425;-62
2021/12/30 11:52:47;;;;;;;1.60;1.33;;;15.70;99.90;;;;;;4982451;28;20436;-61
2021/12/30 11:55:44;;;;;;;2.22;1.38;;;15.70;99.90;;;;;;4977581;28;20441;-54
2021/12/30 11:58:27;;;;;;;1.33;1.23;;;15.90;99.90;;;;;;4982405;28;20441;-63
2021/12/30 12:01:03;;;;;;;2.20;1.33;;;15.80;99.90;;;;;;4977757;28;20430;-65
2021/12/30 12:03:31;;;;;;;1.60;1.27;;;15.80;99.90;;;;;;4981190;28;20515;-66
2021/12/30 12:05:58;;;;;;;1.50;1.20;;;15.70;99.90;;;;;;4974880;28;20471;-66
2021/12/30 12:08:46;;;;;;;1.90;1.20;;;15.70;99.90;;;;;;4955486;28;20556;-66
2021/12/30 12:11:17;;;;;;;1.70;1.30;;;15.70;99.90;;;;;;4975305;28;20450;-65
2021/12/30 12:13:45;;;;;;;1.80;1.43;;;15.60;99.90;;;;;;4982930;28;20511;-66
2021/12/30 12:16:13;;;;;;;1.60;1.50;;;15.60;99.90;;;;;;4980475;28;20492;-65
2021/12/30 12:19:05;;;;;;;1.50;1.10;;;15.60;99.90;;;;;;4981022;28;20468;-65
2021/12/30 12:21:42;;;;;;;2.30;1.50;;;15.60;99.90;;;;;;4982515;28;20450;-66
2021/12/30 12:24:20;;;;;;;1.60;1.17;;;15.60;99.90;;;;;;4979782;28;20441;-66
2021/12/30 12:26:47;;;;;;;2.07;1.30;;;15.60;99.90;;;;;;4980522;28;20464;-65
2021/12/30 12:29:30;;;;;;;2.20;1.40;;;15.60;99.90;;;;;;4980075;28;20476;-66
2021/12/30 12:32:10;;;;;;;1.60;1.37;;;15.50;99.90;;;;;;4957981;28;20502;-65
2021/12/30 12:34:45;;;;;;;1.70;1.60;;;15.60;99.90;;;;;;4968465;28;20491;-63
2021/12/30 12:37:29;;;;;;;1.50;1.30;;;15.60;99.90;;;;;;4971359;28;20448;-65
2021/12/30 12:40:01;;;;;;;1.90;1.20;;;15.60;99.90;;;;;;4973478;28;20452;-64
2021/12/30 12:42:48;;;;;;;2.30;1.33;;;15.60;99.90;;;;;;4976745;28;20995;-64
2021/12/30 12:45:23;;;;;;;3.17;1.47;;;15.60;99.90;;;;;;4972613;28;20456;-64
2021/12/30 12:48:17;;;;;;;1.43;1.33;;;15.60;99.90;;;;;;4971432;28;20820;-65
2021/12/30 12:50:44;;;;;;;1.40;1.20;;;15.60;99.90;;;;;;4963027;28;20487;-64
2021/12/30 12:53:37;;;;;;;1.70;1.27;;;15.60;99.90;;;;;;4971628;28;20477;-63